sensor_id;sensor_type;location;lat;lon;timestamp;P1;durP1;ratioP1;P2;durP2;ratioP2
13897;SDS011;7019;50.766;4.474;2023-03-01T00:00:18;12.27;;;10.40;;
13897;SDS011;7019;50.766;4.474;2023-03-01T00:02:46;15.10;;;11.30;;
13897;SDS011;7019;50.766;4.474;2023-03-01T00:05:13;13.33;;;10.00;;
13897;SDS011;7019;50.766;4.474;2023-03-01T00:07:40;12.30;;;9.00;;
13897;SDS011;7019;50.766;4.474;2023-03-01T00:10:09;12.43;;;10.27;;
13897;SDS011;7019;50.766;4.474;2023-03-01T00:12:37;11.97;;;9.37;;
13897;SDS011;7019;50.766;4.474;2023-03-01T00:15:05;12.00;;;9.47;;
13897;SDS011;7019;50.766;4.474;2023-03-01T00:17:32;17.83;;;10.13;;
13897;SDS011;7019;50.766;4.474;2023-03-01T00:19:59;13.23;;;9.63;;
13897;SDS011;7019;50.766;4.474;2023-03-01T00:22:26;12.37;;;8.87;;
13897;SDS011;7019;50.766;4.474;2023-03-01T00:24:54;12.67;;;10.17;;
13897;SDS011;7019;50.766;4.474;2023-03-01T00:27:22;12.53;;;10.13;;
13897;SDS011;7019;50.766;4.474;2023-03-01T00:29:49;13.73;;;9.53;;
13897;SDS011;7019;50.766;4.474;2023-03-01T00:32:16;15.17;;;10.67;;
13897;SDS011;7019;50.766;4.474;2023-03-01T00:34:44;15.50;;;10.97;;
13897;SDS011;7019;50.766;4.474;2023-03-01T00:37:19;13.20;;;10.20;;
13897;SDS011;7019;50.766;4.474;2023-03-01T00:39:46;12.73;;;10.77;;
13897;SDS011;7019;50.766;4.474;2023-03-01T00:42:14;12.27;;;10.07;;
13897;SDS011;7019;50.766;4.474;2023-03-01T00:44:44;12.80;;;10.13;;
13897;SDS011;7019;50.766;4.474;2023-03-01T00:47:11;12.43;;;9.70;;
13897;SDS011;7019;50.766;4.474;2023-03-01T00:49:39;11.70;;;9.43;;
13897;SDS011;7019;50.766;4.474;2023-03-01T00:52:06;13.60;;;9.63;;
13897;SDS011;7019;50.766;4.474;2023-03-01T00:54:33;12.87;;;9.67;;
13897;SDS011;7019;50.766;4.474;2023-03-01T00:57:00;13.03;;;9.57;;
13897;SDS011;7019;50.766;4.474;2023-03-01T00:59:27;12.07;;;9.67;;
13897;SDS011;7019;50.766;4.474;2023-03-01T01:01:55;13.10;;;10.10;;
13897;SDS011;7019;50.766;4.474;2023-03-01T01:04:24;14.63;;;10.37;;
13897;SDS011;7019;50.766;4.474;2023-03-01T01:06:51;13.70;;;10.70;;
13897;SDS011;7019;50.766;4.474;2023-03-01T01:09:18;14.23;;;9.43;;
13897;SDS011;7019;50.766;4.474;2023-03-01T01:11:45;13.17;;;10.10;;
13897;SDS011;7019;50.766;4.474;2023-03-01T01:14:13;13.07;;;9.70;;
13897;SDS011;7019;50.766;4.474;2023-03-01T01:16:41;13.97;;;10.43;;
13897;SDS011;7019;50.766;4.474;2023-03-01T01:19:11;14.97;;;10.33;;
13897;SDS011;7019;50.766;4.474;2023-03-01T01:21:38;12.57;;;10.37;;
13897;SDS011;7019;50.766;4.474;2023-03-01T01:24:08;14.67;;;10.23;;
13897;SDS011;7019;50.766;4.474;2023-03-01T01:26:35;12.50;;;9.67;;
13897;SDS011;7019;50.766;4.474;2023-03-01T01:29:03;12.83;;;10.40;;
13897;SDS011;7019;50.766;4.474;2023-03-01T01:31:31;11.30;;;10.03;;
13897;SDS011;7019;50.766;4.474;2023-03-01T01:33:59;13.03;;;10.40;;
13897;SDS011;7019;50.766;4.474;2023-03-01T01:36:28;14.70;;;10.57;;
13897;SDS011;7019;50.766;4.474;2023-03-01T01:38:55;13.90;;;10.37;;
13897;SDS011;7019;50.766;4.474;2023-03-01T01:41:22;15.70;;;9.93;;
13897;SDS011;7019;50.766;4.474;2023-03-01T01:46:40;13.93;;;10.23;;
13897;SDS011;7019;50.766;4.474;2023-03-01T01:49:11;15.07;;;10.67;;
13897;SDS011;7019;50.766;4.474;2023-03-01T01:51:47;12.97;;;9.83;;
13897;SDS011;7019;50.766;4.474;2023-03-01T01:54:18;13.87;;;10.40;;
13897;SDS011;7019;50.766;4.474;2023-03-01T01:56:49;14.07;;;10.57;;
13897;SDS011;7019;50.766;4.474;2023-03-01T01:59:19;13.37;;;10.23;;
13897;SDS011;7019;50.766;4.474;2023-03-01T02:01:49;15.57;;;10.17;;
13897;SDS011;7019;50.766;4.474;2023-03-01T02:04:16;13.17;;;10.23;;
13897;SDS011;7019;50.766;4.474;2023-03-01T02:06:44;15.47;;;10.23;;
13897;SDS011;7019;50.766;4.474;2023-03-01T02:09:20;14.63;;;9.97;;
13897;SDS011;7019;50.766;4.474;2023-03-01T02:11:49;13.70;;;10.47;;
13897;SDS011;7019;50.766;4.474;2023-03-01T02:14:17;13.57;;;10.20;;
13897;SDS011;7019;50.766;4.474;2023-03-01T02:16:44;13.33;;;10.00;;
13897;SDS011;7019;50.766;4.474;2023-03-01T02:19:13;13.40;;;10.00;;
13897;SDS011;7019;50.766;4.474;2023-03-01T02:21:48;13.53;;;10.37;;
13897;SDS011;7019;50.766;4.474;2023-03-01T02:24:28;15.53;;;10.00;;
13897;SDS011;7019;50.766;4.474;2023-03-01T02:27:03;14.87;;;10.10;;
13897;SDS011;7019;50.766;4.474;2023-03-01T02:29:32;13.07;;;9.87;;
13897;SDS011;7019;50.766;4.474;2023-03-01T02:31:59;11.90;;;9.50;;
13897;SDS011;7019;50.766;4.474;2023-03-01T02:34:28;14.50;;;10.57;;
13897;SDS011;7019;50.766;4.474;2023-03-01T02:36:57;11.90;;;9.77;;
13897;SDS011;7019;50.766;4.474;2023-03-01T02:39:28;14.53;;;10.40;;
13897;SDS011;7019;50.766;4.474;2023-03-01T02:41:59;13.43;;;10.87;;
13897;SDS011;7019;50.766;4.474;2023-03-01T02:44:28;13.73;;;9.53;;
13897;SDS011;7019;50.766;4.474;2023-03-01T02:46:57;12.93;;;10.23;;
13897;SDS011;7019;50.766;4.474;2023-03-01T02:49:29;12.27;;;9.20;;
13897;SDS011;7019;50.766;4.474;2023-03-01T02:52:09;13.43;;;10.30;;
13897;SDS011;7019;50.766;4.474;2023-03-01T02:54:55;11.60;;;9.43;;
13897;SDS011;7019;50.766;4.474;2023-03-01T02:57:26;13.63;;;9.63;;
13897;SDS011;7019;50.766;4.474;2023-03-01T02:59:54;17.10;;;9.63;;
13897;SDS011;7019;50.766;4.474;2023-03-01T03:02:25;13.10;;;9.53;;
13897;SDS011;7019;50.766;4.474;2023-03-01T03:05:06;13.87;;;9.90;;
13897;SDS011;7019;50.766;4.474;2023-03-01T03:07:35;12.57;;;9.97;;
13897;SDS011;7019;50.766;4.474;2023-03-01T03:10:04;12.07;;;9.17;;
13897;SDS011;7019;50.766;4.474;2023-03-01T03:12:33;10.97;;;9.30;;
13897;SDS011;7019;50.766;4.474;2023-03-01T03:15:00;14.63;;;10.07;;
13897;SDS011;7019;50.766;4.474;2023-03-01T03:17:35;12.80;;;9.73;;
13897;SDS011;7019;50.766;4.474;2023-03-01T03:20:02;11.63;;;10.10;;
13897;SDS011;7019;50.766;4.474;2023-03-01T03:22:31;15.27;;;10.47;;
13897;SDS011;7019;50.766;4.474;2023-03-01T03:24:59;14.87;;;10.17;;
13897;SDS011;7019;50.766;4.474;2023-03-01T03:27:27;13.27;;;9.97;;
13897;SDS011;7019;50.766;4.474;2023-03-01T03:29:54;15.37;;;10.83;;
13897;SDS011;7019;50.766;4.474;2023-03-01T03:32:21;12.57;;;10.07;;
13897;SDS011;7019;50.766;4.474;2023-03-01T03:34:49;14.47;;;10.40;;
13897;SDS011;7019;50.766;4.474;2023-03-01T03:37:16;15.23;;;10.70;;
13897;SDS011;7019;50.766;4.474;2023-03-01T03:39:57;14.03;;;9.97;;
13897;SDS011;7019;50.766;4.474;2023-03-01T03:42:25;12.80;;;9.50;;
13897;SDS011;7019;50.766;4.474;2023-03-01T03:44:52;13.23;;;10.30;;
13897;SDS011;7019;50.766;4.474;2023-03-01T03:47:19;15.10;;;10.90;;
13897;SDS011;7019;50.766;4.474;2023-03-01T03:49:46;15.73;;;10.27;;
13897;SDS011;7019;50.766;4.474;2023-03-01T03:52:15;13.37;;;9.70;;
13897;SDS011;7019;50.766;4.474;2023-03-01T03:54:42;14.93;;;10.53;;
13897;SDS011;7019;50.766;4.474;2023-03-01T03:57:09;16.00;;;10.47;;
13897;SDS011;7019;50.766;4.474;2023-03-01T03:59:36;16.13;;;11.10;;
13897;SDS011;7019;50.766;4.474;2023-03-01T04:02:03;13.90;;;10.83;;
13897;SDS011;7019;50.766;4.474;2023-03-01T04:04:30;13.00;;;10.63;;
13897;SDS011;7019;50.766;4.474;2023-03-01T04:06:57;13.57;;;10.93;;
13897;SDS011;7019;50.766;4.474;2023-03-01T04:09:26;12.93;;;10.17;;
13897;SDS011;7019;50.766;4.474;2023-03-01T04:11:55;15.00;;;11.17;;
13897;SDS011;7019;50.766;4.474;2023-03-01T04:14:22;14.70;;;11.13;;
13897;SDS011;7019;50.766;4.474;2023-03-01T04:16:49;13.60;;;10.97;;
13897;SDS011;7019;50.766;4.474;2023-03-01T04:19:16;13.83;;;11.13;;
13897;SDS011;7019;50.766;4.474;2023-03-01T04:21:43;14.43;;;10.57;;
13897;SDS011;7019;50.766;4.474;2023-03-01T04:24:10;14.83;;;10.97;;
13897;SDS011;7019;50.766;4.474;2023-03-01T04:26:39;16.07;;;11.47;;
13897;SDS011;7019;50.766;4.474;2023-03-01T04:29:06;15.53;;;11.27;;
13897;SDS011;7019;50.766;4.474;2023-03-01T04:31:33;16.47;;;11.07;;
13897;SDS011;7019;50.766;4.474;2023-03-01T04:34:00;16.03;;;11.07;;
13897;SDS011;7019;50.766;4.474;2023-03-01T04:36:28;14.00;;;11.10;;
13897;SDS011;7019;50.766;4.474;2023-03-01T04:38:55;14.30;;;10.77;;
13897;SDS011;7019;50.766;4.474;2023-03-01T04:41:23;17.87;;;11.30;;
13897;SDS011;7019;50.766;4.474;2023-03-01T04:43:52;15.07;;;10.80;;
13897;SDS011;7019;50.766;4.474;2023-03-01T04:46:20;13.57;;;9.80;;
13897;SDS011;7019;50.766;4.474;2023-03-01T04:48:47;14.63;;;11.07;;
13897;SDS011;7019;50.766;4.474;2023-03-01T04:51:14;14.50;;;11.07;;
13897;SDS011;7019;50.766;4.474;2023-03-01T04:53:43;13.33;;;9.70;;
13897;SDS011;7019;50.766;4.474;2023-03-01T04:56:10;14.33;;;10.80;;
13897;SDS011;7019;50.766;4.474;2023-03-01T04:58:38;17.90;;;11.10;;
13897;SDS011;7019;50.766;4.474;2023-03-01T05:01:09;17.63;;;11.20;;
13897;SDS011;7019;50.766;4.474;2023-03-01T05:03:40;16.37;;;11.47;;
13897;SDS011;7019;50.766;4.474;2023-03-01T05:06:08;17.80;;;10.90;;
13897;SDS011;7019;50.766;4.474;2023-03-01T05:08:36;20.27;;;12.00;;
13897;SDS011;7019;50.766;4.474;2023-03-01T05:11:03;16.70;;;11.60;;
13897;SDS011;7019;50.766;4.474;2023-03-01T05:13:31;16.33;;;11.00;;
13897;SDS011;7019;50.766;4.474;2023-03-01T05:15:59;14.30;;;12.03;;
13897;SDS011;7019;50.766;4.474;2023-03-01T05:18:32;15.63;;;11.00;;
13897;SDS011;7019;50.766;4.474;2023-03-01T05:21:02;13.90;;;10.70;;
13897;SDS011;7019;50.766;4.474;2023-03-01T05:23:30;15.77;;;11.37;;
13897;SDS011;7019;50.766;4.474;2023-03-01T05:25:58;14.40;;;10.80;;
13897;SDS011;7019;50.766;4.474;2023-03-01T05:28:26;18.17;;;11.73;;
13897;SDS011;7019;50.766;4.474;2023-03-01T05:30:54;14.60;;;10.70;;
13897;SDS011;7019;50.766;4.474;2023-03-01T05:33:22;15.40;;;10.10;;
13897;SDS011;7019;50.766;4.474;2023-03-01T05:35:51;15.43;;;11.60;;
13897;SDS011;7019;50.766;4.474;2023-03-01T05:38:19;14.90;;;10.87;;
13897;SDS011;7019;50.766;4.474;2023-03-01T05:40:47;19.17;;;10.87;;
13897;SDS011;7019;50.766;4.474;2023-03-01T05:43:15;15.13;;;10.83;;
13897;SDS011;7019;50.766;4.474;2023-03-01T05:45:43;12.47;;;10.13;;
13897;SDS011;7019;50.766;4.474;2023-03-01T05:48:11;17.17;;;10.50;;
13897;SDS011;7019;50.766;4.474;2023-03-01T05:50:39;14.40;;;10.97;;
13897;SDS011;7019;50.766;4.474;2023-03-01T05:53:10;15.10;;;10.43;;
13897;SDS011;7019;50.766;4.474;2023-03-01T05:55:39;13.93;;;10.57;;
13897;SDS011;7019;50.766;4.474;2023-03-01T05:58:09;15.53;;;11.10;;
13897;SDS011;7019;50.766;4.474;2023-03-01T06:00:39;12.87;;;10.30;;
13897;SDS011;7019;50.766;4.474;2023-03-01T06:03:08;17.77;;;10.03;;
13897;SDS011;7019;50.766;4.474;2023-03-01T06:05:37;13.73;;;10.60;;
13897;SDS011;7019;50.766;4.474;2023-03-01T06:08:04;13.00;;;10.30;;
13897;SDS011;7019;50.766;4.474;2023-03-01T06:10:33;14.80;;;10.97;;
13897;SDS011;7019;50.766;4.474;2023-03-01T06:13:00;14.73;;;10.80;;
13897;SDS011;7019;50.766;4.474;2023-03-01T06:15:27;14.73;;;11.37;;
13897;SDS011;7019;50.766;4.474;2023-03-01T06:17:55;17.03;;;10.83;;
13897;SDS011;7019;50.766;4.474;2023-03-01T06:20:23;12.93;;;10.80;;
13897;SDS011;7019;50.766;4.474;2023-03-01T06:22:51;12.27;;;10.13;;
13897;SDS011;7019;50.766;4.474;2023-03-01T06:25:19;20.40;;;12.77;;
13897;SDS011;7019;50.766;4.474;2023-03-01T06:27:49;17.27;;;12.20;;
13897;SDS011;7019;50.766;4.474;2023-03-01T06:30:17;17.87;;;12.53;;
13897;SDS011;7019;50.766;4.474;2023-03-01T06:32:46;18.53;;;12.03;;
13897;SDS011;7019;50.766;4.474;2023-03-01T06:35:14;22.00;;;13.07;;
13897;SDS011;7019;50.766;4.474;2023-03-01T06:37:43;22.97;;;12.53;;
13897;SDS011;7019;50.766;4.474;2023-03-01T06:40:11;18.73;;;11.70;;
13897;SDS011;7019;50.766;4.474;2023-03-01T06:42:40;23.77;;;13.40;;
13897;SDS011;7019;50.766;4.474;2023-03-01T06:45:10;18.40;;;12.13;;
13897;SDS011;7019;50.766;4.474;2023-03-01T06:47:37;21.33;;;12.90;;
13897;SDS011;7019;50.766;4.474;2023-03-01T06:50:05;22.13;;;13.43;;
13897;SDS011;7019;50.766;4.474;2023-03-01T06:52:32;16.17;;;12.23;;
13897;SDS011;7019;50.766;4.474;2023-03-01T06:54:59;21.37;;;13.00;;
13897;SDS011;7019;50.766;4.474;2023-03-01T06:57:27;15.67;;;11.53;;
13897;SDS011;7019;50.766;4.474;2023-03-01T06:59:55;15.70;;;11.67;;
13897;SDS011;7019;50.766;4.474;2023-03-01T07:02:23;21.40;;;13.03;;
13897;SDS011;7019;50.766;4.474;2023-03-01T07:04:50;23.10;;;13.27;;
13897;SDS011;7019;50.766;4.474;2023-03-01T07:07:18;20.03;;;12.53;;
13897;SDS011;7019;50.766;4.474;2023-03-01T07:09:45;18.43;;;11.43;;
13897;SDS011;7019;50.766;4.474;2023-03-01T07:12:13;27.17;;;11.63;;
13897;SDS011;7019;50.766;4.474;2023-03-01T07:14:40;15.50;;;11.47;;
13897;SDS011;7019;50.766;4.474;2023-03-01T07:17:07;20.07;;;11.77;;
13897;SDS011;7019;50.766;4.474;2023-03-01T07:19:35;15.80;;;11.17;;
13897;SDS011;7019;50.766;4.474;2023-03-01T07:22:03;17.07;;;11.43;;
13897;SDS011;7019;50.766;4.474;2023-03-01T07:24:32;16.90;;;11.03;;
13897;SDS011;7019;50.766;4.474;2023-03-01T07:27:00;15.07;;;9.57;;
13897;SDS011;7019;50.766;4.474;2023-03-01T07:29:27;14.20;;;10.13;;
13897;SDS011;7019;50.766;4.474;2023-03-01T07:31:54;11.33;;;8.83;;
13897;SDS011;7019;50.766;4.474;2023-03-01T07:34:21;10.83;;;9.20;;
13897;SDS011;7019;50.766;4.474;2023-03-01T07:36:50;12.87;;;9.93;;
13897;SDS011;7019;50.766;4.474;2023-03-01T07:39:17;11.80;;;9.40;;
13897;SDS011;7019;50.766;4.474;2023-03-01T07:41:44;16.70;;;11.17;;
13897;SDS011;7019;50.766;4.474;2023-03-01T07:44:11;14.70;;;10.70;;
13897;SDS011;7019;50.766;4.474;2023-03-01T07:46:38;16.13;;;10.77;;
13897;SDS011;7019;50.766;4.474;2023-03-01T07:49:06;16.47;;;11.53;;
13897;SDS011;7019;50.766;4.474;2023-03-01T07:51:34;19.53;;;13.67;;
13897;SDS011;7019;50.766;4.474;2023-03-01T07:54:02;22.37;;;13.80;;
13897;SDS011;7019;50.766;4.474;2023-03-01T07:56:29;14.63;;;11.37;;
13897;SDS011;7019;50.766;4.474;2023-03-01T07:58:58;16.73;;;11.67;;
13897;SDS011;7019;50.766;4.474;2023-03-01T08:01:25;13.57;;;10.40;;
13897;SDS011;7019;50.766;4.474;2023-03-01T08:03:52;14.20;;;9.90;;
13897;SDS011;7019;50.766;4.474;2023-03-01T08:06:19;12.37;;;9.17;;
13897;SDS011;7019;50.766;4.474;2023-03-01T08:08:47;14.37;;;10.37;;
13897;SDS011;7019;50.766;4.474;2023-03-01T08:11:15;13.07;;;8.80;;
13897;SDS011;7019;50.766;4.474;2023-03-01T08:13:43;11.00;;;9.10;;
13897;SDS011;7019;50.766;4.474;2023-03-01T08:16:11;11.80;;;9.30;;
13897;SDS011;7019;50.766;4.474;2023-03-01T08:18:39;16.47;;;10.20;;
13897;SDS011;7019;50.766;4.474;2023-03-01T08:21:08;13.37;;;9.60;;
13897;SDS011;7019;50.766;4.474;2023-03-01T08:23:36;10.47;;;8.77;;
13897;SDS011;7019;50.766;4.474;2023-03-01T08:26:05;14.13;;;9.50;;
13897;SDS011;7019;50.766;4.474;2023-03-01T08:28:34;16.23;;;9.53;;
13897;SDS011;7019;50.766;4.474;2023-03-01T08:31:02;11.70;;;9.10;;
13897;SDS011;7019;50.766;4.474;2023-03-01T08:33:29;13.93;;;9.77;;
13897;SDS011;7019;50.766;4.474;2023-03-01T08:36:03;12.37;;;9.17;;
13897;SDS011;7019;50.766;4.474;2023-03-01T08:38:32;16.43;;;9.97;;
13897;SDS011;7019;50.766;4.474;2023-03-01T08:40:59;17.67;;;10.00;;
13897;SDS011;7019;50.766;4.474;2023-03-01T08:43:27;11.20;;;9.57;;
13897;SDS011;7019;50.766;4.474;2023-03-01T08:45:56;15.90;;;9.90;;
13897;SDS011;7019;50.766;4.474;2023-03-01T08:48:23;12.93;;;9.83;;
13897;SDS011;7019;50.766;4.474;2023-03-01T08:50:50;14.17;;;9.63;;
13897;SDS011;7019;50.766;4.474;2023-03-01T08:53:17;12.87;;;10.07;;
13897;SDS011;7019;50.766;4.474;2023-03-01T08:55:45;24.17;;;10.13;;
13897;SDS011;7019;50.766;4.474;2023-03-01T08:58:12;15.17;;;9.30;;
13897;SDS011;7019;50.766;4.474;2023-03-01T09:00:39;11.57;;;9.17;;
13897;SDS011;7019;50.766;4.474;2023-03-01T09:03:07;13.03;;;9.63;;
13897;SDS011;7019;50.766;4.474;2023-03-01T09:05:34;12.37;;;9.77;;
13897;SDS011;7019;50.766;4.474;2023-03-01T09:08:02;15.17;;;10.33;;
13897;SDS011;7019;50.766;4.474;2023-03-01T09:10:29;14.87;;;9.37;;
13897;SDS011;7019;50.766;4.474;2023-03-01T09:12:56;16.80;;;9.53;;
13897;SDS011;7019;50.766;4.474;2023-03-01T09:15:23;17.33;;;10.70;;
13897;SDS011;7019;50.766;4.474;2023-03-01T09:17:50;13.57;;;9.87;;
13897;SDS011;7019;50.766;4.474;2023-03-01T09:20:18;15.63;;;11.17;;
13897;SDS011;7019;50.766;4.474;2023-03-01T09:22:45;15.93;;;11.37;;
13897;SDS011;7019;50.766;4.474;2023-03-01T09:25:12;14.80;;;10.47;;
13897;SDS011;7019;50.766;4.474;2023-03-01T09:27:40;16.53;;;10.50;;
13897;SDS011;7019;50.766;4.474;2023-03-01T09:30:07;15.67;;;10.73;;
13897;SDS011;7019;50.766;4.474;2023-03-01T09:32:35;16.10;;;10.53;;
13897;SDS011;7019;50.766;4.474;2023-03-01T09:35:03;13.53;;;9.30;;
13897;SDS011;7019;50.766;4.474;2023-03-01T09:37:33;13.30;;;9.80;;
13897;SDS011;7019;50.766;4.474;2023-03-01T09:40:02;14.50;;;10.03;;
13897;SDS011;7019;50.766;4.474;2023-03-01T09:42:31;14.80;;;10.30;;
13897;SDS011;7019;50.766;4.474;2023-03-01T09:45:00;13.90;;;10.93;;
13897;SDS011;7019;50.766;4.474;2023-03-01T09:47:31;17.57;;;9.70;;
13897;SDS011;7019;50.766;4.474;2023-03-01T09:50:02;15.43;;;10.80;;
13897;SDS011;7019;50.766;4.474;2023-03-01T09:52:36;14.63;;;10.83;;
13897;SDS011;7019;50.766;4.474;2023-03-01T09:55:08;14.53;;;10.17;;
13897;SDS011;7019;50.766;4.474;2023-03-01T09:57:41;17.37;;;10.20;;
13897;SDS011;7019;50.766;4.474;2023-03-01T10:00:16;13.03;;;9.67;;
13897;SDS011;7019;50.766;4.474;2023-03-01T10:02:51;17.40;;;10.57;;
13897;SDS011;7019;50.766;4.474;2023-03-01T10:05:39;16.37;;;11.13;;
13897;SDS011;7019;50.766;4.474;2023-03-01T10:08:24;14.17;;;10.13;;
13897;SDS011;7019;50.766;4.474;2023-03-01T10:11:01;13.00;;;10.23;;
13897;SDS011;7019;50.766;4.474;2023-03-01T10:13:29;18.73;;;11.10;;
13897;SDS011;7019;50.766;4.474;2023-03-01T10:16:01;15.83;;;9.97;;
13897;SDS011;7019;50.766;4.474;2023-03-01T10:18:35;16.20;;;10.70;;
13897;SDS011;7019;50.766;4.474;2023-03-01T10:21:08;14.73;;;10.07;;
13897;SDS011;7019;50.766;4.474;2023-03-01T10:23:42;14.63;;;10.50;;
13897;SDS011;7019;50.766;4.474;2023-03-01T10:26:12;15.10;;;11.10;;
13897;SDS011;7019;50.766;4.474;2023-03-01T10:29:03;13.07;;;10.57;;
13897;SDS011;7019;50.766;4.474;2023-03-01T10:31:37;12.83;;;9.50;;
13897;SDS011;7019;50.766;4.474;2023-03-01T10:34:09;12.53;;;8.93;;
13897;SDS011;7019;50.766;4.474;2023-03-01T10:36:38;14.70;;;9.90;;
13897;SDS011;7019;50.766;4.474;2023-03-01T10:39:12;15.60;;;9.93;;
13897;SDS011;7019;50.766;4.474;2023-03-01T10:41:55;14.30;;;9.13;;
13897;SDS011;7019;50.766;4.474;2023-03-01T10:44:37;13.60;;;9.90;;
13897;SDS011;7019;50.766;4.474;2023-03-01T10:47:17;14.60;;;9.37;;
13897;SDS011;7019;50.766;4.474;2023-03-01T10:49:57;13.53;;;9.67;;
13897;SDS011;7019;50.766;4.474;2023-03-01T10:52:31;18.37;;;10.50;;
13897;SDS011;7019;50.766;4.474;2023-03-01T10:55:03;12.23;;;9.00;;
13897;SDS011;7019;50.766;4.474;2023-03-01T10:57:49;13.37;;;9.40;;
13897;SDS011;7019;50.766;4.474;2023-03-01T11:00:20;14.93;;;10.10;;
13897;SDS011;7019;50.766;4.474;2023-03-01T11:02:51;14.90;;;8.93;;
13897;SDS011;7019;50.766;4.474;2023-03-01T11:05:29;14.97;;;9.67;;
13897;SDS011;7019;50.766;4.474;2023-03-01T11:07:59;14.80;;;8.90;;
13897;SDS011;7019;50.766;4.474;2023-03-01T11:10:30;17.33;;;9.87;;
13897;SDS011;7019;50.766;4.474;2023-03-01T11:13:06;14.53;;;8.73;;
13897;SDS011;7019;50.766;4.474;2023-03-01T11:15:34;12.20;;;8.73;;
13897;SDS011;7019;50.766;4.474;2023-03-01T11:18:02;14.10;;;10.37;;
13897;SDS011;7019;50.766;4.474;2023-03-01T11:20:29;14.67;;;8.67;;
13897;SDS011;7019;50.766;4.474;2023-03-01T11:23:01;16.03;;;8.87;;
13897;SDS011;7019;50.766;4.474;2023-03-01T11:25:35;10.90;;;7.80;;
13897;SDS011;7019;50.766;4.474;2023-03-01T11:28:05;18.53;;;8.53;;
13897;SDS011;7019;50.766;4.474;2023-03-01T11:30:35;13.50;;;8.77;;
13897;SDS011;7019;50.766;4.474;2023-03-01T11:33:11;13.80;;;9.50;;
13897;SDS011;7019;50.766;4.474;2023-03-01T11:35:45;11.30;;;8.30;;
13897;SDS011;7019;50.766;4.474;2023-03-01T11:38:21;16.67;;;9.63;;
13897;SDS011;7019;50.766;4.474;2023-03-01T11:40:52;12.80;;;9.20;;
13897;SDS011;7019;50.766;4.474;2023-03-01T11:43:30;14.07;;;8.90;;
13897;SDS011;7019;50.766;4.474;2023-03-01T11:49:12;13.50;;;9.37;;
13897;SDS011;7019;50.766;4.474;2023-03-01T11:51:58;13.57;;;8.00;;
13897;SDS011;7019;50.766;4.474;2023-03-01T11:54:33;11.37;;;8.53;;
13897;SDS011;7019;50.766;4.474;2023-03-01T11:57:14;15.40;;;9.77;;
13897;SDS011;7019;50.766;4.474;2023-03-01T12:02:54;17.40;;;9.50;;
13897;SDS011;7019;50.766;4.474;2023-03-01T12:08:49;12.17;;;8.70;;
13897;SDS011;7019;50.766;4.474;2023-03-01T12:11:30;10.27;;;8.43;;
13897;SDS011;7019;50.766;4.474;2023-03-01T12:14:12;13.47;;;9.07;;
13897;SDS011;7019;50.766;4.474;2023-03-01T12:16:59;11.17;;;8.80;;
13897;SDS011;7019;50.766;4.474;2023-03-01T12:19:42;16.60;;;9.07;;
13897;SDS011;7019;50.766;4.474;2023-03-01T12:22:23;13.67;;;8.63;;
13897;SDS011;7019;50.766;4.474;2023-03-01T12:25:02;15.33;;;8.87;;
13897;SDS011;7019;50.766;4.474;2023-03-01T12:27:51;13.63;;;8.97;;
13897;SDS011;7019;50.766;4.474;2023-03-01T12:30:42;11.07;;;9.37;;
13897;SDS011;7019;50.766;4.474;2023-03-01T12:33:22;13.17;;;9.63;;
13897;SDS011;7019;50.766;4.474;2023-03-01T12:36:11;15.37;;;9.00;;
13897;SDS011;7019;50.766;4.474;2023-03-01T12:38:49;14.07;;;8.37;;
13897;SDS011;7019;50.766;4.474;2023-03-01T12:44:11;14.43;;;8.77;;
13897;SDS011;7019;50.766;4.474;2023-03-01T12:46:51;89.63;;;15.07;;
13897;SDS011;7019;50.766;4.474;2023-03-01T12:49:32;12.67;;;8.60;;
13897;SDS011;7019;50.766;4.474;2023-03-01T12:52:07;12.20;;;9.07;;
13897;SDS011;7019;50.766;4.474;2023-03-01T12:54:40;12.10;;;8.47;;
13897;SDS011;7019;50.766;4.474;2023-03-01T12:57:11;13.97;;;7.83;;
13897;SDS011;7019;50.766;4.474;2023-03-01T12:59:42;11.13;;;8.37;;
13897;SDS011;7019;50.766;4.474;2023-03-01T13:02:35;11.13;;;8.23;;
13897;SDS011;7019;50.766;4.474;2023-03-01T13:05:15;14.43;;;8.30;;
13897;SDS011;7019;50.766;4.474;2023-03-01T13:07:52;11.93;;;9.10;;
13897;SDS011;7019;50.766;4.474;2023-03-01T13:10:29;11.53;;;8.47;;
13897;SDS011;7019;50.766;4.474;2023-03-01T13:13:02;9.80;;;7.70;;
13897;SDS011;7019;50.766;4.474;2023-03-01T13:15:39;14.50;;;8.80;;
13897;SDS011;7019;50.766;4.474;2023-03-01T13:18:31;8.53;;;7.63;;
13897;SDS011;7019;50.766;4.474;2023-03-01T13:20:59;11.60;;;8.57;;
13897;SDS011;7019;50.766;4.474;2023-03-01T13:23:29;10.50;;;7.77;;
13897;SDS011;7019;50.766;4.474;2023-03-01T13:26:12;10.13;;;8.30;;
13897;SDS011;7019;50.766;4.474;2023-03-01T13:28:46;13.77;;;7.93;;
13897;SDS011;7019;50.766;4.474;2023-03-01T13:37:26;14.40;;;7.97;;
13897;SDS011;7019;50.766;4.474;2023-03-01T13:39:56;12.03;;;7.33;;
13897;SDS011;7019;50.766;4.474;2023-03-01T13:42:34;10.47;;;7.80;;
13897;SDS011;7019;50.766;4.474;2023-03-01T13:45:19;15.40;;;7.97;;
13897;SDS011;7019;50.766;4.474;2023-03-01T13:47:52;12.07;;;7.20;;
13897;SDS011;7019;50.766;4.474;2023-03-01T13:50:25;10.13;;;7.30;;
13897;SDS011;7019;50.766;4.474;2023-03-01T13:52:55;16.47;;;8.27;;
13897;SDS011;7019;50.766;4.474;2023-03-01T13:55:26;9.23;;;8.23;;
13897;SDS011;7019;50.766;4.474;2023-03-01T13:57:59;13.37;;;7.57;;
13897;SDS011;7019;50.766;4.474;2023-03-01T14:00:32;9.87;;;7.87;;
13897;SDS011;7019;50.766;4.474;2023-03-01T14:03:02;9.53;;;7.60;;
13897;SDS011;7019;50.766;4.474;2023-03-01T14:05:32;9.07;;;7.70;;
13897;SDS011;7019;50.766;4.474;2023-03-01T14:08:01;11.27;;;8.07;;
13897;SDS011;7019;50.766;4.474;2023-03-01T14:10:30;11.33;;;7.57;;
13897;SDS011;7019;50.766;4.474;2023-03-01T14:13:17;11.13;;;8.07;;
13897;SDS011;7019;50.766;4.474;2023-03-01T14:15:57;13.87;;;7.73;;
13897;SDS011;7019;50.766;4.474;2023-03-01T14:18:36;14.10;;;8.33;;
13897;SDS011;7019;50.766;4.474;2023-03-01T14:21:12;12.03;;;8.07;;
13897;SDS011;7019;50.766;4.474;2023-03-01T14:23:41;11.43;;;7.77;;
13897;SDS011;7019;50.766;4.474;2023-03-01T14:26:09;12.03;;;7.53;;
13897;SDS011;7019;50.766;4.474;2023-03-01T14:28:37;10.73;;;7.67;;
13897;SDS011;7019;50.766;4.474;2023-03-01T14:33:59;10.93;;;8.47;;
13897;SDS011;7019;50.766;4.474;2023-03-01T14:36:29;10.93;;;7.60;;
13897;SDS011;7019;50.766;4.474;2023-03-01T14:38:57;13.63;;;8.47;;
13897;SDS011;7019;50.766;4.474;2023-03-01T14:41:31;10.30;;;8.23;;
13897;SDS011;7019;50.766;4.474;2023-03-01T14:44:01;13.50;;;8.17;;
13897;SDS011;7019;50.766;4.474;2023-03-01T14:46:32;10.57;;;7.50;;
13897;SDS011;7019;50.766;4.474;2023-03-01T14:49:02;10.67;;;7.53;;
13897;SDS011;7019;50.766;4.474;2023-03-01T14:51:36;11.73;;;8.23;;
13897;SDS011;7019;50.766;4.474;2023-03-01T14:54:05;10.90;;;8.23;;
13897;SDS011;7019;50.766;4.474;2023-03-01T14:56:45;14.07;;;8.40;;
13897;SDS011;7019;50.766;4.474;2023-03-01T14:59:13;12.33;;;8.10;;
13897;SDS011;7019;50.766;4.474;2023-03-01T15:01:40;12.50;;;8.60;;
13897;SDS011;7019;50.766;4.474;2023-03-01T15:04:10;12.73;;;8.63;;
13897;SDS011;7019;50.766;4.474;2023-03-01T15:06:40;10.83;;;7.67;;
13897;SDS011;7019;50.766;4.474;2023-03-01T15:09:11;10.43;;;7.67;;
13897;SDS011;7019;50.766;4.474;2023-03-01T15:11:42;9.77;;;7.60;;
13897;SDS011;7019;50.766;4.474;2023-03-01T15:14:26;11.90;;;8.13;;
13897;SDS011;7019;50.766;4.474;2023-03-01T15:16:54;14.00;;;9.43;;
13897;SDS011;7019;50.766;4.474;2023-03-01T15:19:23;15.07;;;8.50;;
13897;SDS011;7019;50.766;4.474;2023-03-01T15:21:55;11.03;;;7.43;;
13897;SDS011;7019;50.766;4.474;2023-03-01T15:24:24;9.73;;;7.07;;